sensor_id;sensor_type;location;lat;lon;timestamp;temperature;humidity
68609;SHT31;55581;46.718;7.690;2022-09-09T00:06:43;15.06;80.78
68609;SHT31;55581;46.718;7.690;2022-09-09T00:11:51;15.04;81.51
68609;SHT31;55581;46.718;7.690;2022-09-09T00:17:02;15.06;81.31
68609;SHT31;55581;46.718;7.690;2022-09-09T00:19:48;15.04;81.93
68609;SHT31;55581;46.718;7.690;2022-09-09T00:22:20;14.96;81.96
68609;SHT31;55581;46.718;7.690;2022-09-09T00:24:54;14.86;82.06
68609;SHT31;55581;46.718;7.690;2022-09-09T00:27:35;14.79;82.47
68609;SHT31;55581;46.718;7.690;2022-09-09T00:30:18;14.75;82.26
68609;SHT31;55581;46.718;7.690;2022-09-09T00:32:50;14.69;82.22
68609;SHT31;55581;46.718;7.690;2022-09-09T00:35:36;14.69;82.57
68609;SHT31;55581;46.718;7.690;2022-09-09T00:38:10;14.75;81.76
68609;SHT31;55581;46.718;7.690;2022-09-09T00:40:45;14.75;81.15
68609;SHT31;55581;46.718;7.690;2022-09-09T00:43:41;14.62;81.05
68609;SHT31;55581;46.718;7.690;2022-09-09T00:57:30;14.66;79.65
68609;SHT31;55581;46.718;7.690;2022-09-09T01:00:17;14.65;79.33
68609;SHT31;55581;46.718;7.690;2022-09-09T01:02:53;14.63;80.06
68609;SHT31;55581;46.718;7.690;2022-09-09T01:08:33;14.76;78.19
68609;SHT31;55581;46.718;7.690;2022-09-09T01:11:01;14.83;77.68
68609;SHT31;55581;46.718;7.690;2022-09-09T01:13:37;14.89;77.44
68609;SHT31;55581;46.718;7.690;2022-09-09T01:16:04;14.93;76.94
68609;SHT31;55581;46.718;7.690;2022-09-09T01:18:36;14.89;78.16
68609;SHT31;55581;46.718;7.690;2022-09-09T01:26:11;14.86;77.10
68609;SHT31;55581;46.718;7.690;2022-09-09T01:28:40;14.90;76.85
68609;SHT31;55581;46.718;7.690;2022-09-09T01:31:07;14.86;77.31
68609;SHT31;55581;46.718;7.690;2022-09-09T01:33:34;14.89;77.52
68609;SHT31;55581;46.718;7.690;2022-09-09T01:38:35;14.80;78.54
68609;SHT31;55581;46.718;7.690;2022-09-09T01:41:01;14.84;77.08
68609;SHT31;55581;46.718;7.690;2022-09-09T01:43:27;14.93;75.13
68609;SHT31;55581;46.718;7.690;2022-09-09T01:45:59;14.90;77.78
68609;SHT31;55581;46.718;7.690;2022-09-09T01:48:26;14.93;77.98
68609;SHT31;55581;46.718;7.690;2022-09-09T01:50:54;14.84;78.31
68609;SHT31;55581;46.718;7.690;2022-09-09T01:53:22;14.86;79.62
68609;SHT31;55581;46.718;7.690;2022-09-09T01:56:02;14.81;79.24
68609;SHT31;55581;46.718;7.690;2022-09-09T02:03:44;14.76;80.20
68609;SHT31;55581;46.718;7.690;2022-09-09T02:08:57;14.69;80.22
68609;SHT31;55581;46.718;7.690;2022-09-09T02:11:26;14.63;79.77
68609;SHT31;55581;46.718;7.690;2022-09-09T02:14:16;14.65;80.69
68609;SHT31;55581;46.718;7.690;2022-09-09T02:19:32;14.52;81.18
68609;SHT31;55581;46.718;7.690;2022-09-09T02:21:59;14.49;81.28
68609;SHT31;55581;46.718;7.690;2022-09-09T02:24:27;14.49;81.88
68609;SHT31;55581;46.718;7.690;2022-09-09T02:26:55;14.52;81.42
68609;SHT31;55581;46.718;7.690;2022-09-09T02:29:28;14.56;80.96
68609;SHT31;55581;46.718;7.690;2022-09-09T02:31:59;14.58;81.43
68609;SHT31;55581;46.718;7.690;2022-09-09T02:34:28;14.62;82.20
68609;SHT31;55581;46.718;7.690;2022-09-09T02:36:57;14.58;82.20
68609;SHT31;55581;46.718;7.690;2022-09-09T02:39:25;14.58;82.31
68609;SHT31;55581;46.718;7.690;2022-09-09T02:41:51;14.63;82.49
68609;SHT31;55581;46.718;7.690;2022-09-09T02:44:18;14.63;82.81
68609;SHT31;55581;46.718;7.690;2022-09-09T02:52:45;14.75;83.06
68609;SHT31;55581;46.718;7.690;2022-09-09T02:55:27;14.79;82.73
68609;SHT31;55581;46.718;7.690;2022-09-09T02:57:55;14.81;83.39
68609;SHT31;55581;46.718;7.690;2022-09-09T03:00:25;14.90;82.73
68609;SHT31;55581;46.718;7.690;2022-09-09T03:02:51;14.84;82.86
68609;SHT31;55581;46.718;7.690;2022-09-09T03:05:17;14.87;83.37
68609;SHT31;55581;46.718;7.690;2022-09-09T03:07:42;14.91;83.25
68609;SHT31;55581;46.718;7.690;2022-09-09T03:10:08;14.84;83.52
68609;SHT31;55581;46.718;7.690;2022-09-09T03:12:33;14.91;83.58
68609;SHT31;55581;46.718;7.690;2022-09-09T03:14:59;14.93;83.25
68609;SHT31;55581;46.718;7.690;2022-09-09T03:17:24;14.97;82.93
68609;SHT31;55581;46.718;7.690;2022-09-09T03:19:50;14.98;83.07
68609;SHT31;55581;46.718;7.690;2022-09-09T03:22:19;15.01;83.07
68609;SHT31;55581;46.718;7.690;2022-09-09T03:24:46;15.10;82.26
68609;SHT31;55581;46.718;7.690;2022-09-09T03:27:12;15.11;82.55
68609;SHT31;55581;46.718;7.690;2022-09-09T03:29:39;15.17;82.48
68609;SHT31;55581;46.718;7.690;2022-09-09T03:32:05;15.16;82.62
68609;SHT31;55581;46.718;7.690;2022-09-09T03:34:30;15.14;83.23
68609;SHT31;55581;46.718;7.690;2022-09-09T03:36:56;15.16;83.70
68609;SHT31;55581;46.718;7.690;2022-09-09T03:39:22;15.24;83.20
68609;SHT31;55581;46.718;7.690;2022-09-09T03:41:47;15.24;81.37
68609;SHT31;55581;46.718;7.690;2022-09-09T03:44:14;15.27;81.04
68609;SHT31;55581;46.718;7.690;2022-09-09T03:46:39;15.27;80.89
68609;SHT31;55581;46.718;7.690;2022-09-09T03:49:05;15.36;80.13
68609;SHT31;55581;46.718;7.690;2022-09-09T03:51:30;15.42;79.14
68609;SHT31;55581;46.718;7.690;2022-09-09T03:53:59;15.42;81.33
68609;SHT31;55581;46.718;7.690;2022-09-09T03:56:25;15.41;81.87
68609;SHT31;55581;46.718;7.690;2022-09-09T03:58:50;15.44;85.07
68609;SHT31;55581;46.718;7.690;2022-09-09T04:01:15;15.39;86.05
68609;SHT31;55581;46.718;7.690;2022-09-09T04:03:43;15.30;85.11
68609;SHT31;55581;46.718;7.690;2022-09-09T04:06:10;15.12;86.26
68609;SHT31;55581;46.718;7.690;2022-09-09T04:08:38;15.10;86.63
68609;SHT31;55581;46.718;7.690;2022-09-09T04:11:06;15.01;86.36
68609;SHT31;55581;46.718;7.690;2022-09-09T04:13:33;14.93;87.92
68609;SHT31;55581;46.718;7.690;2022-09-09T04:16:01;14.87;88.21
68609;SHT31;55581;46.718;7.690;2022-09-09T04:18:27;14.81;89.33
68609;SHT31;55581;46.718;7.690;2022-09-09T04:20:56;14.83;88.62
68609;SHT31;55581;46.718;7.690;2022-09-09T04:23:26;14.79;88.87
68609;SHT31;55581;46.718;7.690;2022-09-09T04:25:54;14.80;90.03
68609;SHT31;55581;46.718;7.690;2022-09-09T04:28:21;14.80;89.51
68609;SHT31;55581;46.718;7.690;2022-09-09T04:30:47;14.81;88.60
68609;SHT31;55581;46.718;7.690;2022-09-09T04:33:14;14.86;89.93
68609;SHT31;55581;46.718;7.690;2022-09-09T04:35:44;14.80;89.01
68609;SHT31;55581;46.718;7.690;2022-09-09T04:38:09;14.75;89.24
68609;SHT31;55581;46.718;7.690;2022-09-09T04:40:35;14.73;89.69
68609;SHT31;55581;46.718;7.690;2022-09-09T04:43:02;14.65;89.88
68609;SHT31;55581;46.718;7.690;2022-09-09T04:45:28;14.59;89.06
68609;SHT31;55581;46.718;7.690;2022-09-09T04:47:54;14.61;88.77
68609;SHT31;55581;46.718;7.690;2022-09-09T04:50:20;14.52;88.85
68609;SHT31;55581;46.718;7.690;2022-09-09T04:52:46;14.42;88.49
68609;SHT31;55581;46.718;7.690;2022-09-09T04:55:11;14.36;88.97
68609;SHT31;55581;46.718;7.690;2022-09-09T04:57:38;14.28;89.19
68609;SHT31;55581;46.718;7.690;2022-09-09T05:00:05;14.29;89.83
68609;SHT31;55581;46.718;7.690;2022-09-09T05:02:33;14.21;89.47
68609;SHT31;55581;46.718;7.690;2022-09-09T05:05:02;14.20;89.66
68609;SHT31;55581;46.718;7.690;2022-09-09T05:07:27;14.14;90.06
68609;SHT31;55581;46.718;7.690;2022-09-09T05:09:54;14.13;90.14
68609;SHT31;55581;46.718;7.690;2022-09-09T05:12:19;14.11;90.39
68609;SHT31;55581;46.718;7.690;2022-09-09T05:14:44;14.13;89.20
68609;SHT31;55581;46.718;7.690;2022-09-09T05:17:12;14.17;89.03
68609;SHT31;55581;46.718;7.690;2022-09-09T05:19:38;14.22;88.75
68609;SHT31;55581;46.718;7.690;2022-09-09T05:22:03;14.24;88.98
68609;SHT31;55581;46.718;7.690;2022-09-09T05:24:30;14.14;90.12
68609;SHT31;55581;46.718;7.690;2022-09-09T05:26:58;14.13;90.04
68609;SHT31;55581;46.718;7.690;2022-09-09T05:29:25;14.10;89.82
68609;SHT31;55581;46.718;7.690;2022-09-09T05:31:51;14.14;89.20
68609;SHT31;55581;46.718;7.690;2022-09-09T05:34:17;14.17;90.07
68609;SHT31;55581;46.718;7.690;2022-09-09T05:36:42;14.17;90.10
68609;SHT31;55581;46.718;7.690;2022-09-09T05:39:08;14.22;90.30
68609;SHT31;55581;46.718;7.690;2022-09-09T05:41:33;14.20;90.04
68609;SHT31;55581;46.718;7.690;2022-09-09T05:43:59;14.15;89.59
68609;SHT31;55581;46.718;7.690;2022-09-09T05:46:28;14.11;89.95
68609;SHT31;55581;46.718;7.690;2022-09-09T05:48:56;14.13;89.80
68609;SHT31;55581;46.718;7.690;2022-09-09T05:51:25;14.14;89.83
68609;SHT31;55581;46.718;7.690;2022-09-09T05:53:52;14.10;89.69
68609;SHT31;55581;46.718;7.690;2022-09-09T05:56:21;14.20;90.08
68609;SHT31;55581;46.718;7.690;2022-09-09T05:58:48;14.20;90.25
68609;SHT31;55581;46.718;7.690;2022-09-09T06:01:20;14.15;91.16
68609;SHT31;55581;46.718;7.690;2022-09-09T06:03:53;14.22;90.69
68609;SHT31;55581;46.718;7.690;2022-09-09T06:06:23;14.28;90.41
68609;SHT31;55581;46.718;7.690;2022-09-09T06:08:54;14.31;90.50
68609;SHT31;55581;46.718;7.690;2022-09-09T06:11:22;14.35;90.40
68609;SHT31;55581;46.718;7.690;2022-09-09T06:13:51;14.31;89.75
68609;SHT31;55581;46.718;7.690;2022-09-09T06:16:23;14.29;90.07
68609;SHT31;55581;46.718;7.690;2022-09-09T06:18:53;14.35;89.52
68609;SHT31;55581;46.718;7.690;2022-09-09T06:21:22;14.43;89.10
68609;SHT31;55581;46.718;7.690;2022-09-09T06:23:48;14.52;88.22
68609;SHT31;55581;46.718;7.690;2022-09-09T06:26:18;14.58;89.34
68609;SHT31;55581;46.718;7.690;2022-09-09T06:28:46;14.68;89.87
68609;SHT31;55581;46.718;7.690;2022-09-09T06:31:13;14.68;90.24
68609;SHT31;55581;46.718;7.690;2022-09-09T06:33:42;14.69;90.12
68609;SHT31;55581;46.718;7.690;2022-09-09T06:36:16;14.69;90.01
68609;SHT31;55581;46.718;7.690;2022-09-09T06:38:42;14.68;89.55
68609;SHT31;55581;46.718;7.690;2022-09-09T06:41:09;14.65;88.90
68609;SHT31;55581;46.718;7.690;2022-09-09T06:43:36;14.68;88.84
68609;SHT31;55581;46.718;7.690;2022-09-09T06:46:05;14.72;87.92
68609;SHT31;55581;46.718;7.690;2022-09-09T06:48:31;14.80;87.43
68609;SHT31;55581;46.718;7.690;2022-09-09T06:53:30;15.07;87.48
68609;SHT31;55581;46.718;7.690;2022-09-09T06:56:00;15.14;88.13
68609;SHT31;55581;46.718;7.690;2022-09-09T06:58:29;15.14;87.78
68609;SHT31;55581;46.718;7.690;2022-09-09T07:01:05;15.11;87.91
68609;SHT31;55581;46.718;7.690;2022-09-09T07:03:31;15.25;86.57
68609;SHT31;55581;46.718;7.690;2022-09-09T07:05:57;15.32;86.64
68609;SHT31;55581;46.718;7.690;2022-09-09T07:08:25;15.34;85.06
68609;SHT31;55581;46.718;7.690;2022-09-09T07:10:52;15.52;85.83
68609;SHT31;55581;46.718;7.690;2022-09-09T07:13:24;15.65;85.31
68609;SHT31;55581;46.718;7.690;2022-09-09T07:15:53;15.91;84.09
68609;SHT31;55581;46.718;7.690;2022-09-09T07:18:19;16.03;82.51
68609;SHT31;55581;46.718;7.690;2022-09-09T07:20:53;16.16;83.38
68609;SHT31;55581;46.718;7.690;2022-09-09T07:23:19;16.29;83.67
68609;SHT31;55581;46.718;7.690;2022-09-09T07:25:49;16.41;81.97
68609;SHT31;55581;46.718;7.690;2022-09-09T07:28:16;16.64;81.22
68609;SHT31;55581;46.718;7.690;2022-09-09T07:30:41;16.76;81.32
68609;SHT31;55581;46.718;7.690;2022-09-09T07:33:08;16.86;80.96
68609;SHT31;55581;46.718;7.690;2022-09-09T07:35:35;17.02;80.79
68609;SHT31;55581;46.718;7.690;2022-09-09T07:38:03;17.14;79.08
68609;SHT31;55581;46.718;7.690;2022-09-09T07:40:33;17.13;80.64
68609;SHT31;55581;46.718;7.690;2022-09-09T07:42:59;17.26;80.45
68609;SHT31;55581;46.718;7.690;2022-09-09T07:45:26;17.44;78.50
68609;SHT31;55581;46.718;7.690;2022-09-09T07:47:53;17.57;76.79
68609;SHT31;55581;46.718;7.690;2022-09-09T07:50:22;17.71;76.07
68609;SHT31;55581;46.718;7.690;2022-09-09T07:52:48;17.89;74.31
68609;SHT31;55581;46.718;7.690;2022-09-09T07:55:14;17.90;76.17
68609;SHT31;55581;46.718;7.690;2022-09-09T07:57:40;18.02;76.50
68609;SHT31;55581;46.718;7.690;2022-09-09T08:00:09;18.12;76.00
68609;SHT31;55581;46.718;7.690;2022-09-09T08:02:35;18.27;74.14
68609;SHT31;55581;46.718;7.690;2022-09-09T08:05:01;18.40;73.85
68609;SHT31;55581;46.718;7.690;2022-09-09T08:07:26;18.48;73.49
68609;SHT31;55581;46.718;7.690;2022-09-09T08:09:54;18.79;73.70
68609;SHT31;55581;46.718;7.690;2022-09-09T08:12:21;18.85;71.54
68609;SHT31;55581;46.718;7.690;2022-09-09T08:14:48;18.96;71.94
68609;SHT31;55581;46.718;7.690;2022-09-09T08:17:14;19.13;71.23
68609;SHT31;55581;46.718;7.690;2022-09-09T08:19:40;19.06;71.48
68609;SHT31;55581;46.718;7.690;2022-09-09T08:22:09;19.06;71.31
68609;SHT31;55581;46.718;7.690;2022-09-09T08:24:35;19.06;71.05
68609;SHT31;55581;46.718;7.690;2022-09-09T08:27:01;19.10;72.35
68609;SHT31;55581;46.718;7.690;2022-09-09T08:29:26;19.06;71.52
68609;SHT31;55581;46.718;7.690;2022-09-09T08:31:55;18.96;70.35
68609;SHT31;55581;46.718;7.690;2022-09-09T08:34:23;18.93;70.63
68609;SHT31;55581;46.718;7.690;2022-09-09T08:36:50;18.92;70.61
68609;SHT31;55581;46.718;7.690;2022-09-09T08:39:18;18.79;69.59
68609;SHT31;55581;46.718;7.690;2022-09-09T08:54:51;19.60;69.21
68609;SHT31;55581;46.718;7.690;2022-09-09T08:57:25;19.67;69.17
68609;SHT31;55581;46.718;7.690;2022-09-09T08:59:52;19.64;68.96
68609;SHT31;55581;46.718;7.690;2022-09-09T09:05:00;19.35;69.65
68609;SHT31;55581;46.718;7.690;2022-09-09T09:12:44;18.99;62.82
68609;SHT31;55581;46.718;7.690;2022-09-09T09:15:24;19.27;64.01
68609;SHT31;55581;46.718;7.690;2022-09-09T09:17:50;19.57;63.85
68609;SHT31;55581;46.718;7.690;2022-09-09T09:20:17;19.83;60.36
68609;SHT31;55581;46.718;7.690;2022-09-09T09:22:52;20.09;61.34
68609;SHT31;55581;46.718;7.690;2022-09-09T09:25:23;20.26;62.25
68609;SHT31;55581;46.718;7.690;2022-09-09T09:31:10;20.55;59.73
68609;SHT31;55581;46.718;7.690;2022-09-09T09:36:16;20.94;58.45
68609;SHT31;55581;46.718;7.690;2022-09-09T09:38:59;20.92;60.51
68609;SHT31;55581;46.718;7.690;2022-09-09T09:41:36;21.00;58.20
68609;SHT31;55581;46.718;7.690;2022-09-09T09:44:03;20.91;59.70
68609;SHT31;55581;46.718;7.690;2022-09-09T09:46:31;20.92;58.45
68609;SHT31;55581;46.718;7.690;2022-09-09T09:49:05;21.26;59.30
68609;SHT31;55581;46.718;7.690;2022-09-09T09:51:32;21.19;61.38
68609;SHT31;55581;46.718;7.690;2022-09-09T09:54:27;21.60;58.17
68609;SHT31;55581;46.718;7.690;2022-09-09T09:56:53;21.82;57.57
68609;SHT31;55581;46.718;7.690;2022-09-09T09:59:41;22.08;57.58
68609;SHT31;55581;46.718;7.690;2022-09-09T10:02:13;22.20;58.26
68609;SHT31;55581;46.718;7.690;2022-09-09T10:04:39;21.87;56.94
68609;SHT31;55581;46.718;7.690;2022-09-09T10:07:15;21.73;58.95
68609;SHT31;55581;46.718;7.690;2022-09-09T10:09:44;21.74;58.87
68609;SHT31;55581;46.718;7.690;2022-09-09T10:27:09;22.26;57.73
68609;SHT31;55581;46.718;7.690;2022-09-09T10:46:40;21.98;56.30
68609;SHT31;55581;46.718;7.690;2022-09-09T10:57:00;22.22;54.91
68609;SHT31;55581;46.718;7.690;2022-09-09T10:59:33;22.33;54.76
68609;SHT31;55581;46.718;7.690;2022-09-09T11:02:10;22.06;54.00
68609;SHT31;55581;46.718;7.690;2022-09-09T11:07:10;22.36;54.99
68609;SHT31;55581;46.718;7.690;2022-09-09T11:09:42;22.46;54.27
68609;SHT31;55581;46.718;7.690;2022-09-09T11:12:17;22.80;54.35
68609;SHT31;55581;46.718;7.690;2022-09-09T11:14:48;22.87;54.17
68609;SHT31;55581;46.718;7.690;2022-09-09T11:17:25;23.11;53.69
68609;SHT31;55581;46.718;7.690;2022-09-09T11:19:52;22.90;51.04
68609;SHT31;55581;46.718;7.690;2022-09-09T11:33:58;23.23;49.87
68609;SHT31;55581;46.718;7.690;2022-09-09T11:36:51;23.23;51.15
68609;SHT31;55581;46.718;7.690;2022-09-09T11:39:37;23.47;51.68
68609;SHT31;55581;46.718;7.690;2022-09-09T11:44:40;23.45;49.16
68609;SHT31;55581;46.718;7.690;2022-09-09T11:49:54;23.26;51.09
68609;SHT31;55581;46.718;7.690;2022-09-09T11:52:37;23.18;50.00
68609;SHT31;55581;46.718;7.690;2022-09-09T11:55:10;23.19;51.62
68609;SHT31;55581;46.718;7.690;2022-09-09T11:57:39;22.80;51.31
68609;SHT31;55581;46.718;7.690;2022-09-09T12:00:06;22.87;51.33
68609;SHT31;55581;46.718;7.690;2022-09-09T12:02:33;23.04;50.68
68609;SHT31;55581;46.718;7.690;2022-09-09T12:07:33;23.47;51.08
68609;SHT31;55581;46.718;7.690;2022-09-09T12:10:05;23.77;51.23
68609;SHT31;55581;46.718;7.690;2022-09-09T12:12:44;24.12;50.09
68609;SHT31;55581;46.718;7.690;2022-09-09T12:17:43;24.43;46.26
68609;SHT31;55581;46.718;7.690;2022-09-09T12:20:35;24.08;46.32
68609;SHT31;55581;46.718;7.690;2022-09-09T12:23:15;24.05;46.48
68609;SHT31;55581;46.718;7.690;2022-09-09T12:28:53;23.69;45.78
68609;SHT31;55581;46.718;7.690;2022-09-09T12:33:49;23.81;46.24
68609;SHT31;55581;46.718;7.690;2022-09-09T12:36:20;23.59;45.66
68609;SHT31;55581;46.718;7.690;2022-09-09T12:38:47;23.56;45.83
68609;SHT31;55581;46.718;7.690;2022-09-09T12:41:24;23.22;46.66
68609;SHT31;55581;46.718;7.690;2022-09-09T12:44:08;22.86;47.27
68609;SHT31;55581;46.718;7.690;2022-09-09T12:46:37;22.64;47.48
68609;SHT31;55581;46.718;7.690;2022-09-09T12:49:04;22.44;47.77
68609;SHT31;55581;46.718;7.690;2022-09-09T12:51:31;22.59;47.59
68609;SHT31;55581;46.718;7.690;2022-09-09T12:53:59;22.83;47.39
68609;SHT31;55581;46.718;7.690;2022-09-09T12:56:27;23.09;47.60
68609;SHT31;55581;46.718;7.690;2022-09-09T12:58:56;23.38;45.10
68609;SHT31;55581;46.718;7.690;2022-09-09T13:01:31;23.38;45.05
68609;SHT31;55581;46.718;7.690;2022-09-09T13:03:58;23.30;45.60
68609;SHT31;55581;46.718;7.690;2022-09-09T13:06:29;23.20;45.48
68609;SHT31;55581;46.718;7.690;2022-09-09T13:08:57;23.09;46.35
68609;SHT31;55581;46.718;7.690;2022-09-09T13:11:36;23.00;46.80
68609;SHT31;55581;46.718;7.690;2022-09-09T13:14:12;22.84;44.91
68609;SHT31;55581;46.718;7.690;2022-09-09T13:16:56;22.90;47.58
68609;SHT31;55581;46.718;7.690;2022-09-09T13:19:21;23.23;46.18
68609;SHT31;55581;46.718;7.690;2022-09-09T13:21:47;23.25;44.02
68609;SHT31;55581;46.718;7.690;2022-09-09T13:24:32;22.94;44.57
68609;SHT31;55581;46.718;7.690;2022-09-09T13:27:03;22.63;45.35
68609;SHT31;55581;46.718;7.690;2022-09-09T13:29:31;22.28;45.25
68609;SHT31;55581;46.718;7.690;2022-09-09T13:32:12;22.06;45.97
68609;SHT31;55581;46.718;7.690;2022-09-09T13:35:01;22.01;45.98
68609;SHT31;55581;46.718;7.690;2022-09-09T13:37:34;22.10;46.70
68609;SHT31;55581;46.718;7.690;2022-09-09T13:40:00;21.99;45.93
68609;SHT31;55581;46.718;7.690;2022-09-09T13:42:33;22.05;44.81
68609;SHT31;55581;46.718;7.690;2022-09-09T13:45:03;22.20;48.38
68609;SHT31;55581;46.718;7.690;2022-09-09T13:47:36;22.23;46.79
68609;SHT31;55581;46.718;7.690;2022-09-09T13:50:28;22.29;46.91
68609;SHT31;55581;46.718;7.690;2022-09-09T13:52:57;22.43;44.81
68609;SHT31;55581;46.718;7.690;2022-09-09T13:55:25;22.40;45.55
68609;SHT31;55581;46.718;7.690;2022-09-09T14:00:24;22.78;45.76
68609;SHT31;55581;46.718;7.690;2022-09-09T14:02:50;23.01;44.72
68609;SHT31;55581;46.718;7.690;2022-09-09T14:05:17;23.09;42.21
68609;SHT31;55581;46.718;7.690;2022-09-09T14:07:47;23.01;41.46
68609;SHT31;55581;46.718;7.690;2022-09-09T14:10:13;23.23;41.41
68609;SHT31;55581;46.718;7.690;2022-09-09T14:12:38;22.95;39.51
68609;SHT31;55581;46.718;7.690;2022-09-09T14:15:06;22.86;41.92
68609;SHT31;55581;46.718;7.690;2022-09-09T14:17:32;22.80;42.34
68609;SHT31;55581;46.718;7.690;2022-09-09T14:19:58;22.61;41.16
68609;SHT31;55581;46.718;7.690;2022-09-09T14:22:24;22.44;42.89
68609;SHT31;55581;46.718;7.690;2022-09-09T14:24:51;22.12;43.47
68609;SHT31;55581;46.718;7.690;2022-09-09T14:27:17;21.98;42.44
68609;SHT31;55581;46.718;7.690;2022-09-09T14:29:44;21.67;41.90
68609;SHT31;55581;46.718;7.690;2022-09-09T14:32:10;21.55;43.78
68609;SHT31;55581;46.718;7.690;2022-09-09T14:34:36;21.33;43.44
68609;SHT31;55581;46.718;7.690;2022-09-09T14:37:01;21.39;42.83
68609;SHT31;55581;46.718;7.690;2022-09-09T14:39:27;21.39;43.86
68609;SHT31;55581;46.718;7.690;2022-09-09T14:41:52;21.44;44.02
68609;SHT31;55581;46.718;7.690;2022-09-09T14:44:17;21.43;44.14
68609;SHT31;55581;46.718;7.690;2022-09-09T14:46:44;21.60;44.57
68609;SHT31;55581;46.718;7.690;2022-09-09T14:49:09;21.60;43.22
68609;SHT31;55581;46.718;7.690;2022-09-09T14:51:38;21.58;43.42
68609;SHT31;55581;46.718;7.690;2022-09-09T14:54:04;21.50;44.10
68609;SHT31;55581;46.718;7.690;2022-09-09T14:56:32;21.67;43.95
68609;SHT31;55581;46.718;7.690;2022-09-09T14:59:02;21.74;42.47
68609;SHT31;55581;46.718;7.690;2022-09-09T15:01:28;21.91;43.31
68609;SHT31;55581;46.718;7.690;2022-09-09T15:03:59;21.92;43.12
68609;SHT31;55581;46.718;7.690;2022-09-09T15:06:27;22.08;42.89
68609;SHT31;55581;46.718;7.690;2022-09-09T15:08:56;22.16;43.06
68609;SHT31;55581;46.718;7.690;2022-09-09T15:11:27;22.37;42.33
68609;SHT31;55581;46.718;7.690;2022-09-09T15:13:53;22.61;41.56
68609;SHT31;55581;46.718;7.690;2022-09-09T15:16:20;22.70;42.37
68609;SHT31;55581;46.718;7.690;2022-09-09T15:18:46;22.70;41.60
68609;SHT31;55581;46.718;7.690;2022-09-09T15:21:17;22.67;40.68
68609;SHT31;55581;46.718;7.690;2022-09-09T15:23:46;22.91;40.76
68609;SHT31;55581;46.718;7.690;2022-09-09T15:26:14;22.87;39.25
68609;SHT31;55581;46.718;7.690;2022-09-09T15:28:42;22.70;38.74
68609;SHT31;55581;46.718;7.690;2022-09-09T15:34:02;22.42;39.63
68609;SHT31;55581;46.718;7.690;2022-09-09T15:36:33;22.15;40.46
68609;SHT31;55581;46.718;7.690;2022-09-09T15:39:02;22.35;39.60
68609;SHT31;55581;46.718;7.690;2022-09-09T15:41:29;22.39;39.67
68609;SHT31;55581;46.718;7.690;2022-09-09T15:43:57;22.25;40.73
68609;SHT31;55581;46.718;7.690;2022-09-09T15:51:30;21.87;40.19
68609;SHT31;55581;46.718;7.690;2022-09-09T15:53:56;22.12;41.23
68609;SHT31;55581;46.718;7.690;2022-09-09T15:56:23;22.26;40.58
68609;SHT31;55581;46.718;7.690;2022-09-09T15:58:49;22.43;39.89
68609;SHT31;55581;46.718;7.690;2022-09-09T16:01:15;22.49;40.01
68609;SHT31;55581;46.718;7.690;2022-09-09T16:03:43;22.05;40.22
68609;SHT31;55581;46.718;7.690;2022-09-09T16:06:12;22.02;40.76
68609;SHT31;55581;46.718;7.690;2022-09-09T16:08:41;22.13;41.07
68609;SHT31;55581;46.718;7.690;2022-09-09T16:11:12;22.25;42.18
68609;SHT31;55581;46.718;7.690;2022-09-09T16:13:40;22.19;41.63
68609;SHT31;55581;46.718;7.690;2022-09-09T16:16:10;22.10;41.49
68609;SHT31;55581;46.718;7.690;2022-09-09T16:18:44;21.98;41.45
68609;SHT31;55581;46.718;7.690;2022-09-09T16:21:30;21.61;43.22
68609;SHT31;55581;46.718;7.690;2022-09-09T16:23:58;21.43;44.24
68609;SHT31;55581;46.718;7.690;2022-09-09T16:26:30;21.12;44.45
68609;SHT31;55581;46.718;7.690;2022-09-09T16:28:58;20.94;46.10
68609;SHT31;55581;46.718;7.690;2022-09-09T16:31:25;20.77;45.66
68609;SHT31;55581;46.718;7.690;2022-09-09T16:33:52;20.63;45.64
68609;SHT31;55581;46.718;7.690;2022-09-09T16:36:23;20.48;46.48
68609;SHT31;55581;46.718;7.690;2022-09-09T16:38:56;20.32;47.28
68609;SHT31;55581;46.718;7.690;2022-09-09T16:41:26;20.16;47.43
68609;SHT31;55581;46.718;7.690;2022-09-09T16:43:56;20.12;48.07
68609;SHT31;55581;46.718;7.690;2022-09-09T16:46:25;19.97;48.12
68609;SHT31;55581;46.718;7.690;2022-09-09T16:48:53;19.97;48.02
68609;SHT31;55581;46.718;7.690;2022-09-09T16:51:26;19.93;50.62
68609;SHT31;55581;46.718;7.690;2022-09-09T16:53:53;19.83;49.21
68609;SHT31;55581;46.718;7.690;2022-09-09T16:56:22;19.88;49.17
68609;SHT31;55581;46.718;7.690;2022-09-09T16:59:01;19.83;49.42
68609;SHT31;55581;46.718;7.690;2022-09-09T17:01:32;19.72;50.26
68609;SHT31;55581;46.718;7.690;2022-09-09T17:04:04;19.65;49.96
68609;SHT31;55581;46.718;7.690;2022-09-09T17:06:31;19.65;50.08
68609;SHT31;55581;46.718;7.690;2022-09-09T17:09:07;19.55;51.33
68609;SHT31;55581;46.718;7.690;2022-09-09T17:11:33;19.51;52.14
68609;SHT31;55581;46.718;7.690;2022-09-09T17:13:59;19.34;53.13
68609;SHT31;55581;46.718;7.690;2022-09-09T17:16:29;19.33;53.24
68609;SHT31;55581;46.718;7.690;2022-09-09T17:18:56;19.22;54.13
68609;SHT31;55581;46.718;7.690;2022-09-09T17:21:25;19.13;54.71
68609;SHT31;55581;46.718;7.690;2022-09-09T17:23:52;18.93;55.07
68609;SHT31;55581;46.718;7.690;2022-09-09T17:26:19;18.79;55.86
68609;SHT31;55581;46.718;7.690;2022-09-09T17:28:46;18.54;56.86
68609;SHT31;55581;46.718;7.690;2022-09-09T17:31:17;18.51;56.96
68609;SHT31;55581;46.718;7.690;2022-09-09T17:33:48;18.48;57.31
68609;SHT31;55581;46.718;7.690;2022-09-09T17:36:17;18.44;57.40
68609;SHT31;55581;46.718;7.690;2022-09-09T17:38:43;18.43;57.19
68609;SHT31;55581;46.718;7.690;2022-09-09T17:41:13;18.43;56.56
68609;SHT31;55581;46.718;7.690;2022-09-09T17:43:39;18.36;57.57
68609;SHT31;55581;46.718;7.690;2022-09-09T17:46:15;18.30;58.34
68609;SHT31;55581;46.718;7.690;2022-09-09T17:48:42;18.29;57.54
68609;SHT31;55581;46.718;7.690;2022-09-09T17:51:17;18.36;57.35
68609;SHT31;55581;46.718;7.690;2022-09-09T17:53:49;18.29;56.94
68609;SHT31;55581;46.718;7.690;2022-09-09T17:56:16;18.27;57.89
68609;SHT31;55581;46.718;7.690;2022-09-09T17:58:43;18.17;57.35
68609;SHT31;55581;46.718;7.690;2022-09-09T18:01:21;18.12;57.30
68609;SHT31;55581;46.718;7.690;2022-09-09T18:03:48;18.14;56.97
68609;SHT31;55581;46.718;7.690;2022-09-09T18:06:17;18.12;57.69
68609;SHT31;55581;46.718;7.690;2022-09-09T18:08:54;18.09;59.35
68609;SHT31;55581;46.718;7.690;2022-09-09T18:11:21;18.04;59.74
68609;SHT31;55581;46.718;7.690;2022-09-09T18:13:55;18.06;60.35
68609;SHT31;55581;46.718;7.690;2022-09-09T18:16:23;17.96;61.75
68609;SHT31;55581;46.718;7.690;2022-09-09T18:18:49;17.90;61.94
68609;SHT31;55581;46.718;7.690;2022-09-09T18:21:15;17.81;63.56
68609;SHT31;55581;46.718;7.690;2022-09-09T18:23:43;17.64;64.48